sensor_id;sensor_type;location;lat;lon;timestamp;P1;durP1;ratioP1;P2;durP2;ratioP2
25846;SDS011;13676;50.168;8.568;2022-08-19T00:01:23;12.40;;;10.35;;
25846;SDS011;13676;50.168;8.568;2022-08-19T00:03:50;13.38;;;10.27;;
25846;SDS011;13676;50.168;8.568;2022-08-19T00:06:15;12.10;;;9.68;;
25846;SDS011;13676;50.168;8.568;2022-08-19T00:08:41;14.32;;;11.77;;
25846;SDS011;13676;50.168;8.568;2022-08-19T00:11:06;12.30;;;10.82;;
25846;SDS011;13676;50.168;8.568;2022-08-19T00:13:32;11.98;;;10.02;;
25846;SDS011;13676;50.168;8.568;2022-08-19T00:15:58;16.10;;;12.40;;
25846;SDS011;13676;50.168;8.568;2022-08-19T00:18:24;12.05;;;10.07;;
25846;SDS011;13676;50.168;8.568;2022-08-19T00:20:50;14.95;;;11.45;;
25846;SDS011;13676;50.168;8.568;2022-08-19T00:23:16;15.15;;;11.35;;
25846;SDS011;13676;50.168;8.568;2022-08-19T00:25:41;16.63;;;10.23;;
25846;SDS011;13676;50.168;8.568;2022-08-19T00:28:07;14.35;;;10.50;;
25846;SDS011;13676;50.168;8.568;2022-08-19T00:30:32;12.95;;;10.02;;
25846;SDS011;13676;50.168;8.568;2022-08-19T00:32:58;14.15;;;10.82;;
25846;SDS011;13676;50.168;8.568;2022-08-19T00:35:23;15.50;;;11.73;;
25846;SDS011;13676;50.168;8.568;2022-08-19T00:37:50;10.68;;;9.55;;
25846;SDS011;13676;50.168;8.568;2022-08-19T00:40:16;11.52;;;8.90;;
25846;SDS011;13676;50.168;8.568;2022-08-19T00:42:43;11.02;;;8.95;;
25846;SDS011;13676;50.168;8.568;2022-08-19T00:45:19;9.60;;;8.30;;
25846;SDS011;13676;50.168;8.568;2022-08-19T00:47:45;10.40;;;8.77;;
25846;SDS011;13676;50.168;8.568;2022-08-19T00:50:12;9.07;;;8.18;;
25846;SDS011;13676;50.168;8.568;2022-08-19T00:52:41;11.70;;;9.40;;
25846;SDS011;13676;50.168;8.568;2022-08-19T00:55:10;11.10;;;8.80;;
25846;SDS011;13676;50.168;8.568;2022-08-19T00:57:44;14.75;;;9.90;;
25846;SDS011;13676;50.168;8.568;2022-08-19T01:00:13;10.30;;;8.18;;
25846;SDS011;13676;50.168;8.568;2022-08-19T01:02:41;11.60;;;7.93;;
25846;SDS011;13676;50.168;8.568;2022-08-19T01:05:08;12.00;;;8.45;;
25846;SDS011;13676;50.168;8.568;2022-08-19T01:07:36;13.57;;;8.48;;
25846;SDS011;13676;50.168;8.568;2022-08-19T01:10:04;8.48;;;7.22;;
25846;SDS011;13676;50.168;8.568;2022-08-19T01:12:31;12.50;;;7.15;;
25846;SDS011;13676;50.168;8.568;2022-08-19T01:14:57;11.20;;;8.00;;
25846;SDS011;13676;50.168;8.568;2022-08-19T01:17:24;9.32;;;7.00;;
25846;SDS011;13676;50.168;8.568;2022-08-19T01:19:49;10.60;;;8.45;;
25846;SDS011;13676;50.168;8.568;2022-08-19T01:24:46;10.02;;;8.73;;
25846;SDS011;13676;50.168;8.568;2022-08-19T01:27:11;10.60;;;7.65;;
25846;SDS011;13676;50.168;8.568;2022-08-19T01:29:38;7.93;;;7.00;;
25846;SDS011;13676;50.168;8.568;2022-08-19T01:32:05;11.00;;;9.00;;
25846;SDS011;13676;50.168;8.568;2022-08-19T01:34:31;10.17;;;7.50;;
25846;SDS011;13676;50.168;8.568;2022-08-19T01:39:24;10.25;;;8.80;;
25846;SDS011;13676;50.168;8.568;2022-08-19T01:41:50;10.45;;;7.38;;
25846;SDS011;13676;50.168;8.568;2022-08-19T01:44:19;12.40;;;7.70;;
25846;SDS011;13676;50.168;8.568;2022-08-19T01:46:49;10.90;;;8.73;;
25846;SDS011;13676;50.168;8.568;2022-08-19T01:49:16;9.30;;;7.30;;
25846;SDS011;13676;50.168;8.568;2022-08-19T01:51:43;11.32;;;7.88;;
25846;SDS011;13676;50.168;8.568;2022-08-19T01:54:09;13.05;;;9.18;;
25846;SDS011;13676;50.168;8.568;2022-08-19T01:56:36;10.38;;;7.85;;
25846;SDS011;13676;50.168;8.568;2022-08-19T01:59:03;9.48;;;8.23;;
25846;SDS011;13676;50.168;8.568;2022-08-19T02:01:30;13.60;;;8.95;;
25846;SDS011;13676;50.168;8.568;2022-08-19T02:03:59;9.10;;;7.22;;
25846;SDS011;13676;50.168;8.568;2022-08-19T02:06:26;7.57;;;6.25;;
25846;SDS011;13676;50.168;8.568;2022-08-19T02:08:52;9.73;;;7.70;;
25846;SDS011;13676;50.168;8.568;2022-08-19T02:11:18;13.15;;;7.60;;
25846;SDS011;13676;50.168;8.568;2022-08-19T02:13:51;11.55;;;7.25;;
25846;SDS011;13676;50.168;8.568;2022-08-19T02:16:17;10.50;;;8.05;;
25846;SDS011;13676;50.168;8.568;2022-08-19T02:18:43;12.10;;;7.68;;
25846;SDS011;13676;50.168;8.568;2022-08-19T02:21:09;8.52;;;7.30;;
25846;SDS011;13676;50.168;8.568;2022-08-19T02:23:35;9.97;;;7.30;;
25846;SDS011;13676;50.168;8.568;2022-08-19T02:26:01;13.32;;;7.78;;
25846;SDS011;13676;50.168;8.568;2022-08-19T02:28:26;10.60;;;6.80;;
25846;SDS011;13676;50.168;8.568;2022-08-19T02:30:51;11.23;;;7.30;;
25846;SDS011;13676;50.168;8.568;2022-08-19T02:33:17;10.77;;;7.82;;
25846;SDS011;13676;50.168;8.568;2022-08-19T02:35:43;8.23;;;6.97;;
25846;SDS011;13676;50.168;8.568;2022-08-19T02:38:09;8.57;;;6.45;;
25846;SDS011;13676;50.168;8.568;2022-08-19T02:40:56;14.00;;;8.05;;
25846;SDS011;13676;50.168;8.568;2022-08-19T02:43:24;10.95;;;7.68;;
25846;SDS011;13676;50.168;8.568;2022-08-19T02:45:50;12.20;;;7.20;;
25846;SDS011;13676;50.168;8.568;2022-08-19T02:48:17;12.82;;;6.93;;
25846;SDS011;13676;50.168;8.568;2022-08-19T02:50:44;7.28;;;6.10;;
25846;SDS011;13676;50.168;8.568;2022-08-19T02:53:09;10.70;;;7.47;;
25846;SDS011;13676;50.168;8.568;2022-08-19T02:55:35;9.55;;;6.35;;
25846;SDS011;13676;50.168;8.568;2022-08-19T02:58:00;6.57;;;5.88;;
25846;SDS011;13676;50.168;8.568;2022-08-19T03:00:26;11.20;;;6.78;;
25846;SDS011;13676;50.168;8.568;2022-08-19T03:02:52;9.40;;;6.22;;
25846;SDS011;13676;50.168;8.568;2022-08-19T03:05:18;11.48;;;7.55;;
25846;SDS011;13676;50.168;8.568;2022-08-19T03:07:44;10.90;;;6.65;;
25846;SDS011;13676;50.168;8.568;2022-08-19T03:10:10;7.22;;;5.53;;
25846;SDS011;13676;50.168;8.568;2022-08-19T03:12:36;12.77;;;7.03;;
25846;SDS011;13676;50.168;8.568;2022-08-19T03:15:03;7.50;;;5.45;;
25846;SDS011;13676;50.168;8.568;2022-08-19T03:17:30;9.65;;;5.85;;
25846;SDS011;13676;50.168;8.568;2022-08-19T03:19:55;7.28;;;5.07;;
25846;SDS011;13676;50.168;8.568;2022-08-19T03:22:21;9.93;;;5.43;;
25846;SDS011;13676;50.168;8.568;2022-08-19T03:24:46;9.88;;;5.47;;
25846;SDS011;13676;50.168;8.568;2022-08-19T03:27:12;9.70;;;5.70;;
25846;SDS011;13676;50.168;8.568;2022-08-19T03:29:39;6.90;;;5.40;;
25846;SDS011;13676;50.168;8.568;2022-08-19T03:32:05;6.57;;;4.88;;
25846;SDS011;13676;50.168;8.568;2022-08-19T03:34:31;7.88;;;5.03;;
25846;SDS011;13676;50.168;8.568;2022-08-19T03:37:03;8.13;;;4.90;;
25846;SDS011;13676;50.168;8.568;2022-08-19T03:39:32;12.80;;;5.40;;
25846;SDS011;13676;50.168;8.568;2022-08-19T03:41:59;6.35;;;4.50;;
25846;SDS011;13676;50.168;8.568;2022-08-19T03:44:27;6.82;;;4.60;;
25846;SDS011;13676;50.168;8.568;2022-08-19T03:46:58;6.65;;;4.30;;
25846;SDS011;13676;50.168;8.568;2022-08-19T03:49:25;5.78;;;4.38;;
25846;SDS011;13676;50.168;8.568;2022-08-19T03:51:52;5.72;;;4.13;;
25846;SDS011;13676;50.168;8.568;2022-08-19T03:54:20;4.85;;;4.20;;
25846;SDS011;13676;50.168;8.568;2022-08-19T03:56:48;5.57;;;4.10;;
25846;SDS011;13676;50.168;8.568;2022-08-19T04:01:52;4.25;;;3.80;;
25846;SDS011;13676;50.168;8.568;2022-08-19T04:04:19;5.43;;;4.55;;
25846;SDS011;13676;50.168;8.568;2022-08-19T04:06:45;6.43;;;3.92;;
25846;SDS011;13676;50.168;8.568;2022-08-19T04:09:12;5.00;;;3.95;;
25846;SDS011;13676;50.168;8.568;2022-08-19T04:11:38;6.95;;;4.05;;
25846;SDS011;13676;50.168;8.568;2022-08-19T04:14:07;6.43;;;4.00;;
25846;SDS011;13676;50.168;8.568;2022-08-19T04:16:33;6.30;;;4.20;;
25846;SDS011;13676;50.168;8.568;2022-08-19T04:18:59;4.82;;;3.95;;
25846;SDS011;13676;50.168;8.568;2022-08-19T04:21:26;3.85;;;3.45;;
25846;SDS011;13676;50.168;8.568;2022-08-19T04:23:51;6.20;;;4.13;;
25846;SDS011;13676;50.168;8.568;2022-08-19T04:26:19;4.78;;;3.53;;
25846;SDS011;13676;50.168;8.568;2022-08-19T04:28:48;3.78;;;3.40;;
25846;SDS011;13676;50.168;8.568;2022-08-19T04:31:21;3.92;;;3.53;;
25846;SDS011;13676;50.168;8.568;2022-08-19T04:33:51;8.10;;;5.38;;
25846;SDS011;13676;50.168;8.568;2022-08-19T04:36:22;10.02;;;4.03;;
25846;SDS011;13676;50.168;8.568;2022-08-19T04:38:52;5.35;;;3.65;;
25846;SDS011;13676;50.168;8.568;2022-08-19T04:41:19;5.30;;;3.78;;
25846;SDS011;13676;50.168;8.568;2022-08-19T04:44:04;5.55;;;3.75;;
25846;SDS011;13676;50.168;8.568;2022-08-19T04:46:29;6.82;;;4.28;;
25846;SDS011;13676;50.168;8.568;2022-08-19T04:51:23;7.22;;;4.60;;
25846;SDS011;13676;50.168;8.568;2022-08-19T04:53:48;4.88;;;3.47;;
25846;SDS011;13676;50.168;8.568;2022-08-19T04:56:14;5.28;;;4.03;;
25846;SDS011;13676;50.168;8.568;2022-08-19T04:58:41;5.03;;;3.45;;
25846;SDS011;13676;50.168;8.568;2022-08-19T05:01:09;4.97;;;3.72;;
25846;SDS011;13676;50.168;8.568;2022-08-19T05:03:36;4.80;;;3.33;;
25846;SDS011;13676;50.168;8.568;2022-08-19T05:06:07;4.15;;;3.33;;
25846;SDS011;13676;50.168;8.568;2022-08-19T05:08:35;4.50;;;3.30;;
25846;SDS011;13676;50.168;8.568;2022-08-19T05:11:06;6.15;;;3.95;;
25846;SDS011;13676;50.168;8.568;2022-08-19T05:13:43;5.20;;;4.10;;
25846;SDS011;13676;50.168;8.568;2022-08-19T05:16:09;4.68;;;3.75;;
25846;SDS011;13676;50.168;8.568;2022-08-19T05:18:35;6.00;;;3.75;;
25846;SDS011;13676;50.168;8.568;2022-08-19T05:21:20;8.10;;;3.65;;
25846;SDS011;13676;50.168;8.568;2022-08-19T05:24:04;5.32;;;4.07;;
25846;SDS011;13676;50.168;8.568;2022-08-19T05:26:37;5.25;;;4.30;;
25846;SDS011;13676;50.168;8.568;2022-08-19T05:29:04;4.65;;;3.70;;
25846;SDS011;13676;50.168;8.568;2022-08-19T05:31:30;6.10;;;4.00;;
25846;SDS011;13676;50.168;8.568;2022-08-19T05:33:56;4.47;;;3.00;;
25846;SDS011;13676;50.168;8.568;2022-08-19T05:36:24;3.33;;;3.03;;
25846;SDS011;13676;50.168;8.568;2022-08-19T05:38:53;4.45;;;3.20;;
25846;SDS011;13676;50.168;8.568;2022-08-19T05:41:19;3.95;;;2.92;;
25846;SDS011;13676;50.168;8.568;2022-08-19T05:43:45;3.60;;;3.13;;
25846;SDS011;13676;50.168;8.568;2022-08-19T05:46:16;4.43;;;2.90;;
25846;SDS011;13676;50.168;8.568;2022-08-19T05:48:43;4.57;;;3.28;;
25846;SDS011;13676;50.168;8.568;2022-08-19T05:51:09;3.55;;;3.10;;
25846;SDS011;13676;50.168;8.568;2022-08-19T05:53:35;7.67;;;2.80;;
25846;SDS011;13676;50.168;8.568;2022-08-19T05:56:07;4.00;;;2.58;;
25846;SDS011;13676;50.168;8.568;2022-08-19T05:58:35;6.10;;;3.10;;
25846;SDS011;13676;50.168;8.568;2022-08-19T06:01:01;2.67;;;2.45;;
25846;SDS011;13676;50.168;8.568;2022-08-19T06:03:33;3.78;;;2.65;;
25846;SDS011;13676;50.168;8.568;2022-08-19T06:05:59;4.80;;;3.30;;
25846;SDS011;13676;50.168;8.568;2022-08-19T06:08:25;6.95;;;3.00;;
25846;SDS011;13676;50.168;8.568;2022-08-19T06:10:52;4.22;;;2.80;;
25846;SDS011;13676;50.168;8.568;2022-08-19T06:13:18;4.70;;;2.90;;
25846;SDS011;13676;50.168;8.568;2022-08-19T06:15:44;4.82;;;2.95;;
25846;SDS011;13676;50.168;8.568;2022-08-19T06:18:12;5.43;;;3.13;;
25846;SDS011;13676;50.168;8.568;2022-08-19T06:20:38;3.33;;;2.92;;
25846;SDS011;13676;50.168;8.568;2022-08-19T06:23:03;3.25;;;2.65;;
25846;SDS011;13676;50.168;8.568;2022-08-19T06:25:29;4.78;;;2.58;;
25846;SDS011;13676;50.168;8.568;2022-08-19T06:27:55;5.10;;;2.35;;
25846;SDS011;13676;50.168;8.568;2022-08-19T06:30:20;3.45;;;2.20;;
25846;SDS011;13676;50.168;8.568;2022-08-19T06:32:46;5.47;;;2.10;;
25846;SDS011;13676;50.168;8.568;2022-08-19T06:35:11;3.35;;;2.50;;
25846;SDS011;13676;50.168;8.568;2022-08-19T06:37:38;4.80;;;2.35;;
25846;SDS011;13676;50.168;8.568;2022-08-19T06:40:03;4.35;;;2.53;;
25846;SDS011;13676;50.168;8.568;2022-08-19T06:42:29;4.47;;;2.45;;
25846;SDS011;13676;50.168;8.568;2022-08-19T06:44:55;4.03;;;2.20;;
25846;SDS011;13676;50.168;8.568;2022-08-19T06:47:21;2.83;;;2.28;;
25846;SDS011;13676;50.168;8.568;2022-08-19T06:49:47;6.47;;;2.50;;
25846;SDS011;13676;50.168;8.568;2022-08-19T06:52:12;7.05;;;2.83;;
25846;SDS011;13676;50.168;8.568;2022-08-19T06:54:38;4.20;;;2.67;;
25846;SDS011;13676;50.168;8.568;2022-08-19T06:57:04;8.20;;;2.50;;
25846;SDS011;13676;50.168;8.568;2022-08-19T06:59:31;5.82;;;2.50;;
25846;SDS011;13676;50.168;8.568;2022-08-19T07:01:59;5.10;;;2.92;;
25846;SDS011;13676;50.168;8.568;2022-08-19T07:04:27;4.07;;;2.53;;
25846;SDS011;13676;50.168;8.568;2022-08-19T07:06:58;3.45;;;2.65;;
25846;SDS011;13676;50.168;8.568;2022-08-19T07:09:33;3.08;;;2.10;;
25846;SDS011;13676;50.168;8.568;2022-08-19T07:11:58;4.25;;;2.38;;
25846;SDS011;13676;50.168;8.568;2022-08-19T07:14:25;3.55;;;2.20;;
25846;SDS011;13676;50.168;8.568;2022-08-19T07:16:52;3.45;;;1.83;;
25846;SDS011;13676;50.168;8.568;2022-08-19T07:19:20;3.38;;;1.90;;
25846;SDS011;13676;50.168;8.568;2022-08-19T07:21:47;5.40;;;2.93;;
25846;SDS011;13676;50.168;8.568;2022-08-19T07:24:13;11.20;;;2.85;;
25846;SDS011;13676;50.168;8.568;2022-08-19T07:26:41;4.70;;;2.80;;
25846;SDS011;13676;50.168;8.568;2022-08-19T07:29:08;3.28;;;2.75;;
25846;SDS011;13676;50.168;8.568;2022-08-19T07:31:34;3.35;;;2.30;;
25846;SDS011;13676;50.168;8.568;2022-08-19T07:34:02;4.15;;;2.72;;
25846;SDS011;13676;50.168;8.568;2022-08-19T07:36:31;4.82;;;2.55;;
25846;SDS011;13676;50.168;8.568;2022-08-19T07:39:00;3.78;;;2.90;;
25846;SDS011;13676;50.168;8.568;2022-08-19T07:41:28;3.05;;;2.60;;
25846;SDS011;13676;50.168;8.568;2022-08-19T07:43:56;4.20;;;2.63;;
25846;SDS011;13676;50.168;8.568;2022-08-19T07:46:23;3.45;;;3.15;;
25846;SDS011;13676;50.168;8.568;2022-08-19T07:48:49;6.97;;;3.60;;
25846;SDS011;13676;50.168;8.568;2022-08-19T07:51:19;4.10;;;2.93;;
25846;SDS011;13676;50.168;8.568;2022-08-19T07:53:46;5.57;;;2.83;;
25846;SDS011;13676;50.168;8.568;2022-08-19T07:58:39;3.70;;;2.60;;
25846;SDS011;13676;50.168;8.568;2022-08-19T08:01:09;4.35;;;2.78;;
25846;SDS011;13676;50.168;8.568;2022-08-19T08:03:36;5.28;;;2.97;;
25846;SDS011;13676;50.168;8.568;2022-08-19T08:06:34;4.13;;;3.47;;
25846;SDS011;13676;50.168;8.568;2022-08-19T08:09:21;5.57;;;2.95;;
25846;SDS011;13676;50.168;8.568;2022-08-19T08:11:54;6.65;;;3.53;;
25846;SDS011;13676;50.168;8.568;2022-08-19T08:14:29;6.80;;;4.32;;
25846;SDS011;13676;50.168;8.568;2022-08-19T08:16:56;4.22;;;3.63;;
25846;SDS011;13676;50.168;8.568;2022-08-19T08:19:22;8.48;;;3.92;;
25846;SDS011;13676;50.168;8.568;2022-08-19T08:21:49;4.72;;;3.20;;
25846;SDS011;13676;50.168;8.568;2022-08-19T08:24:15;6.32;;;3.33;;
25846;SDS011;13676;50.168;8.568;2022-08-19T08:26:41;6.68;;;3.60;;
25846;SDS011;13676;50.168;8.568;2022-08-19T08:31:35;8.25;;;4.55;;
25846;SDS011;13676;50.168;8.568;2022-08-19T08:34:00;4.13;;;3.05;;
25846;SDS011;13676;50.168;8.568;2022-08-19T08:36:26;4.10;;;2.88;;
25846;SDS011;13676;50.168;8.568;2022-08-19T08:38:52;4.57;;;2.88;;
25846;SDS011;13676;50.168;8.568;2022-08-19T08:41:22;4.97;;;3.88;;
25846;SDS011;13676;50.168;8.568;2022-08-19T08:43:49;5.18;;;3.78;;
25846;SDS011;13676;50.168;8.568;2022-08-19T08:46:39;6.00;;;3.65;;
25846;SDS011;13676;50.168;8.568;2022-08-19T08:51:50;6.72;;;3.40;;
25846;SDS011;13676;50.168;8.568;2022-08-19T08:54:20;3.92;;;2.80;;
25846;SDS011;13676;50.168;8.568;2022-08-19T08:56:46;4.60;;;3.20;;
25846;SDS011;13676;50.168;8.568;2022-08-19T09:01:44;3.45;;;2.22;;
25846;SDS011;13676;50.168;8.568;2022-08-19T09:04:10;5.70;;;3.22;;
25846;SDS011;13676;50.168;8.568;2022-08-19T09:06:46;4.93;;;3.08;;
25846;SDS011;13676;50.168;8.568;2022-08-19T09:09:18;6.03;;;3.40;;
25846;SDS011;13676;50.168;8.568;2022-08-19T09:14:39;3.75;;;2.40;;
25846;SDS011;13676;50.168;8.568;2022-08-19T09:17:15;4.18;;;2.95;;
25846;SDS011;13676;50.168;8.568;2022-08-19T09:19:49;6.28;;;3.40;;
25846;SDS011;13676;50.168;8.568;2022-08-19T09:22:29;5.20;;;3.80;;
25846;SDS011;13676;50.168;8.568;2022-08-19T09:24:55;8.00;;;3.30;;
25846;SDS011;13676;50.168;8.568;2022-08-19T09:27:21;4.32;;;3.45;;
25846;SDS011;13676;50.168;8.568;2022-08-19T09:29:51;4.95;;;3.72;;
25846;SDS011;13676;50.168;8.568;2022-08-19T09:34:44;3.90;;;2.80;;
25846;SDS011;13676;50.168;8.568;2022-08-19T09:37:09;6.80;;;3.00;;
25846;SDS011;13676;50.168;8.568;2022-08-19T09:39:35;5.05;;;3.03;;
25846;SDS011;13676;50.168;8.568;2022-08-19T09:42:00;3.30;;;3.00;;
25846;SDS011;13676;50.168;8.568;2022-08-19T09:44:25;2.88;;;2.55;;
25846;SDS011;13676;50.168;8.568;2022-08-19T09:46:51;4.90;;;3.10;;
25846;SDS011;13676;50.168;8.568;2022-08-19T09:49:17;4.45;;;3.47;;
25846;SDS011;13676;50.168;8.568;2022-08-19T09:51:43;6.60;;;4.30;;
25846;SDS011;13676;50.168;8.568;2022-08-19T09:54:08;8.88;;;3.25;;
25846;SDS011;13676;50.168;8.568;2022-08-19T09:56:34;4.78;;;3.80;;
25846;SDS011;13676;50.168;8.568;2022-08-19T09:59:00;6.18;;;4.22;;
25846;SDS011;13676;50.168;8.568;2022-08-19T10:01:27;4.30;;;2.95;;
25846;SDS011;13676;50.168;8.568;2022-08-19T10:03:54;6.65;;;4.10;;
25846;SDS011;13676;50.168;8.568;2022-08-19T10:06:22;5.28;;;3.42;;
25846;SDS011;13676;50.168;8.568;2022-08-19T10:08:48;5.13;;;3.65;;
25846;SDS011;13676;50.168;8.568;2022-08-19T10:11:14;5.13;;;4.30;;
25846;SDS011;13676;50.168;8.568;2022-08-19T10:13:41;6.95;;;4.50;;
25846;SDS011;13676;50.168;8.568;2022-08-19T10:16:08;4.43;;;4.00;;
25846;SDS011;13676;50.168;8.568;2022-08-19T10:18:35;3.58;;;3.03;;
25846;SDS011;13676;50.168;8.568;2022-08-19T10:23:35;6.38;;;4.85;;
25846;SDS011;13676;50.168;8.568;2022-08-19T10:26:02;7.40;;;5.20;;
25846;SDS011;13676;50.168;8.568;2022-08-19T10:28:30;4.50;;;3.75;;
25846;SDS011;13676;50.168;8.568;2022-08-19T10:30:57;4.67;;;4.23;;
25846;SDS011;13676;50.168;8.568;2022-08-19T10:33:23;5.80;;;4.65;;
25846;SDS011;13676;50.168;8.568;2022-08-19T10:35:58;5.13;;;4.00;;
25846;SDS011;13676;50.168;8.568;2022-08-19T10:38:24;5.53;;;3.90;;
25846;SDS011;13676;50.168;8.568;2022-08-19T10:40:50;5.57;;;4.93;;
25846;SDS011;13676;50.168;8.568;2022-08-19T10:43:15;8.00;;;5.28;;
25846;SDS011;13676;50.168;8.568;2022-08-19T10:45:41;5.65;;;5.15;;
25846;SDS011;13676;50.168;8.568;2022-08-19T10:48:07;6.63;;;4.65;;
25846;SDS011;13676;50.168;8.568;2022-08-19T10:50:32;4.43;;;4.03;;
25846;SDS011;13676;50.168;8.568;2022-08-19T10:53:16;6.30;;;4.88;;
25846;SDS011;13676;50.168;8.568;2022-08-19T10:55:44;6.32;;;4.95;;
25846;SDS011;13676;50.168;8.568;2022-08-19T10:58:28;7.68;;;6.10;;
25846;SDS011;13676;50.168;8.568;2022-08-19T11:00:57;7.47;;;5.35;;
25846;SDS011;13676;50.168;8.568;2022-08-19T11:03:24;5.13;;;4.60;;
25846;SDS011;13676;50.168;8.568;2022-08-19T11:08:29;5.25;;;4.60;;
25846;SDS011;13676;50.168;8.568;2022-08-19T11:10:57;4.80;;;4.30;;
25846;SDS011;13676;50.168;8.568;2022-08-19T11:13:30;6.53;;;4.90;;
25846;SDS011;13676;50.168;8.568;2022-08-19T11:15:57;7.13;;;4.90;;
25846;SDS011;13676;50.168;8.568;2022-08-19T11:18:23;7.28;;;5.03;;
25846;SDS011;13676;50.168;8.568;2022-08-19T11:20:49;7.13;;;5.85;;
25846;SDS011;13676;50.168;8.568;2022-08-19T11:23:14;7.00;;;5.70;;
25846;SDS011;13676;50.168;8.568;2022-08-19T11:25:39;7.43;;;5.82;;
25846;SDS011;13676;50.168;8.568;2022-08-19T11:28:05;6.32;;;5.70;;
25846;SDS011;13676;50.168;8.568;2022-08-19T11:30:30;6.07;;;5.30;;
25846;SDS011;13676;50.168;8.568;2022-08-19T11:32:58;6.28;;;5.68;;
25846;SDS011;13676;50.168;8.568;2022-08-19T11:35:25;8.45;;;5.40;;
25846;SDS011;13676;50.168;8.568;2022-08-19T11:37:51;6.60;;;5.70;;
25846;SDS011;13676;50.168;8.568;2022-08-19T11:40:16;8.40;;;5.38;;
25846;SDS011;13676;50.168;8.568;2022-08-19T11:42:42;8.73;;;5.07;;
25846;SDS011;13676;50.168;8.568;2022-08-19T11:45:23;6.38;;;4.88;;
25846;SDS011;13676;50.168;8.568;2022-08-19T11:47:49;6.00;;;4.45;;
25846;SDS011;13676;50.168;8.568;2022-08-19T11:50:15;9.40;;;5.22;;
25846;SDS011;13676;50.168;8.568;2022-08-19T11:52:41;8.67;;;5.20;;
25846;SDS011;13676;50.168;8.568;2022-08-19T11:55:07;5.70;;;4.40;;
25846;SDS011;13676;50.168;8.568;2022-08-19T11:57:33;4.80;;;4.35;;
25846;SDS011;13676;50.168;8.568;2022-08-19T11:59:58;4.18;;;3.78;;
25846;SDS011;13676;50.168;8.568;2022-08-19T12:02:23;5.53;;;5.03;;
25846;SDS011;13676;50.168;8.568;2022-08-19T12:04:50;5.75;;;4.68;;
25846;SDS011;13676;50.168;8.568;2022-08-19T12:07:15;6.13;;;4.75;;
25846;SDS011;13676;50.168;8.568;2022-08-19T12:09:41;7.60;;;5.00;;
25846;SDS011;13676;50.168;8.568;2022-08-19T12:12:07;4.90;;;4.15;;
25846;SDS011;13676;50.168;8.568;2022-08-19T12:14:33;6.25;;;4.03;;
25846;SDS011;13676;50.168;8.568;2022-08-19T12:16:59;5.07;;;4.57;;
25846;SDS011;13676;50.168;8.568;2022-08-19T12:19:25;6.53;;;5.15;;
25846;SDS011;13676;50.168;8.568;2022-08-19T12:21:50;4.38;;;3.97;;
25846;SDS011;13676;50.168;8.568;2022-08-19T12:24:18;11.13;;;4.30;;
25846;SDS011;13676;50.168;8.568;2022-08-19T12:26:47;6.07;;;3.65;;
25846;SDS011;13676;50.168;8.568;2022-08-19T12:29:13;4.63;;;3.97;;
25846;SDS011;13676;50.168;8.568;2022-08-19T12:31:39;7.43;;;3.47;;
25846;SDS011;13676;50.168;8.568;2022-08-19T12:34:05;5.75;;;3.88;;
25846;SDS011;13676;50.168;8.568;2022-08-19T12:36:30;4.85;;;3.75;;
25846;SDS011;13676;50.168;8.568;2022-08-19T12:38:57;3.72;;;3.40;;
25846;SDS011;13676;50.168;8.568;2022-08-19T12:41:23;4.50;;;3.45;;
25846;SDS011;13676;50.168;8.568;2022-08-19T12:43:49;4.13;;;3.72;;
25846;SDS011;13676;50.168;8.568;2022-08-19T12:46:15;3.83;;;3.33;;
25846;SDS011;13676;50.168;8.568;2022-08-19T12:48:40;4.07;;;2.90;;
25846;SDS011;13676;50.168;8.568;2022-08-19T12:51:11;2.97;;;2.58;;
25846;SDS011;13676;50.168;8.568;2022-08-19T12:53:39;21.35;;;2.28;;
25846;SDS011;13676;50.168;8.568;2022-08-19T12:56:04;2.45;;;2.00;;
25846;SDS011;13676;50.168;8.568;2022-08-19T12:58:31;4.05;;;2.75;;
25846;SDS011;13676;50.168;8.568;2022-08-19T13:00:57;3.53;;;2.90;;
25846;SDS011;13676;50.168;8.568;2022-08-19T13:03:22;3.58;;;2.50;;
25846;SDS011;13676;50.168;8.568;2022-08-19T13:05:54;4.53;;;2.70;;
25846;SDS011;13676;50.168;8.568;2022-08-19T13:08:19;3.78;;;2.65;;
25846;SDS011;13676;50.168;8.568;2022-08-19T13:10:45;3.28;;;2.63;;
25846;SDS011;13676;50.168;8.568;2022-08-19T13:13:10;2.80;;;2.50;;
25846;SDS011;13676;50.168;8.568;2022-08-19T13:15:37;2.72;;;2.25;;
25846;SDS011;13676;50.168;8.568;2022-08-19T13:18:05;4.88;;;2.85;;
25846;SDS011;13676;50.168;8.568;2022-08-19T13:20:30;5.22;;;2.70;;
25846;SDS011;13676;50.168;8.568;2022-08-19T13:22:56;3.22;;;2.65;;
25846;SDS011;13676;50.168;8.568;2022-08-19T13:25:22;4.85;;;2.65;;
25846;SDS011;13676;50.168;8.568;2022-08-19T13:27:48;4.07;;;2.38;;
25846;SDS011;13676;50.168;8.568;2022-08-19T13:30:16;3.55;;;2.25;;
25846;SDS011;13676;50.168;8.568;2022-08-19T13:33:11;2.97;;;2.20;;
25846;SDS011;13676;50.168;8.568;2022-08-19T13:38:22;5.75;;;2.28;;
25846;SDS011;13676;50.168;8.568;2022-08-19T13:40:49;4.90;;;2.10;;
25846;SDS011;13676;50.168;8.568;2022-08-19T13:43:16;4.55;;;2.30;;
25846;SDS011;13676;50.168;8.568;2022-08-19T13:45:42;5.47;;;1.90;;
25846;SDS011;13676;50.168;8.568;2022-08-19T13:48:08;2.30;;;2.05;;
25846;SDS011;13676;50.168;8.568;2022-08-19T13:50:37;5.10;;;2.38;;
25846;SDS011;13676;50.168;8.568;2022-08-19T13:53:07;3.47;;;2.20;;
25846;SDS011;13676;50.168;8.568;2022-08-19T13:55:34;8.63;;;2.05;;
25846;SDS011;13676;50.168;8.568;2022-08-19T13:58:01;86.47;;;4.57;;
25846;SDS011;13676;50.168;8.568;2022-08-19T14:00:28;6.03;;;1.90;;
25846;SDS011;13676;50.168;8.568;2022-08-19T14:02:56;5.28;;;1.98;;
25846;SDS011;13676;50.168;8.568;2022-08-19T14:05:22;2.40;;;1.95;;
25846;SDS011;13676;50.168;8.568;2022-08-19T14:07:48;3.17;;;1.83;;
25846;SDS011;13676;50.168;8.568;2022-08-19T14:10:14;3.35;;;1.70;;
25846;SDS011;13676;50.168;8.568;2022-08-19T14:12:40;5.00;;;2.20;;
25846;SDS011;13676;50.168;8.568;2022-08-19T14:15:06;3.90;;;1.77;;
25846;SDS011;13676;50.168;8.568;2022-08-19T14:17:33;1.75;;;1.65;;
25846;SDS011;13676;50.168;8.568;2022-08-19T14:20:00;2.60;;;1.90;;
25846;SDS011;13676;50.168;8.568;2022-08-19T14:22:29;2.00;;;1.80;;
25846;SDS011;13676;50.168;8.568;2022-08-19T14:24:56;2.60;;;2.17;;
25846;SDS011;13676;50.168;8.568;2022-08-19T14:27:22;2.15;;;1.77;;
25846;SDS011;13676;50.168;8.568;2022-08-19T14:29:49;2.72;;;1.80;;
25846;SDS011;13676;50.168;8.568;2022-08-19T14:32:15;2.77;;;2.10;;
25846;SDS011;13676;50.168;8.568;2022-08-19T14:34:40;2.33;;;1.90;;
25846;SDS011;13676;50.168;8.568;2022-08-19T14:37:05;2.33;;;1.75;;
25846;SDS011;13676;50.168;8.568;2022-08-19T14:39:31;5.57;;;2.25;;
25846;SDS011;13676;50.168;8.568;2022-08-19T14:41:56;5.05;;;2.10;;
25846;SDS011;13676;50.168;8.568;2022-08-19T14:44:22;2.90;;;1.98;;
25846;SDS011;13676;50.168;8.568;2022-08-19T14:46:47;2.15;;;1.80;;
25846;SDS011;13676;50.168;8.568;2022-08-19T14:49:13;1.92;;;1.60;;
25846;SDS011;13676;50.168;8.568;2022-08-19T14:51:38;2.17;;;1.58;;
25846;SDS011;13676;50.168;8.568;2022-08-19T14:54:04;7.75;;;2.10;;
25846;SDS011;13676;50.168;8.568;2022-08-19T14:56:29;1.80;;;1.45;;
25846;SDS011;13676;50.168;8.568;2022-08-19T14:58:55;3.37;;;1.63;;
25846;SDS011;13676;50.168;8.568;2022-08-19T15:01:24;4.10;;;1.90;;
25846;SDS011;13676;50.168;8.568;2022-08-19T15:03:50;3.53;;;2.05;;
25846;SDS011;13676;50.168;8.568;2022-08-19T15:06:17;4.22;;;2.00;;
25846;SDS011;13676;50.168;8.568;2022-08-19T15:08:43;4.28;;;1.80;;
25846;SDS011;13676;50.168;8.568;2022-08-19T15:11:11;4.13;;;2.27;;
25846;SDS011;13676;50.168;8.568;2022-08-19T15:13:39;3.13;;;1.83;;
25846;SDS011;13676;50.168;8.568;2022-08-19T15:16:05;2.22;;;1.88;;
25846;SDS011;13676;50.168;8.568;2022-08-19T15:18:31;1.73;;;1.60;;
25846;SDS011;13676;50.168;8.568;2022-08-19T15:20:57;2.67;;;2.42;;